< Typhoon 199129 1992 Season Typhoon 199202 >
Typhoon 199201 (AXEL)
General InformationTrack Information on Google MapsDetailed Wind InformationList of All Images || Disaster Info.ResourceGoogle EarthGE AnimationAtom FeedGeoJSON
Detalied Best Track (Time Zone = UTC)
Year Month Day Hour Lat. Long. Pressure (hPa) Wind (kt) Class Image Chart
1992 1 4 12 4.4 179.1 1002 0 2 Image Chart
1992 1 4 18 4.7 178.8 1002 0 2 Image Chart
1992 1 5 00 5.0 178.5 1002 0 2 Image Chart
1992 1 5 06 5.2 177.9 1000 0 2 Image Chart
1992 1 5 12 5.5 177.2 1000 0 2 Image Chart
1992 1 5 18 5.8 176.6 998 0 2 Image Chart
1992 1 6 00 6.1 176.0 998 35 3 Image Chart
1992 1 6 06 6.2 175.1 996 40 3 Image Chart
1992 1 6 12 6.3 174.3 994 40 3 Image Chart
1992 1 6 18 6.3 173.3 990 45 3 Image Chart
1992 1 7 00 6.1 172.2 990 45 3 Image Chart
1992 1 7 06 5.8 170.7 985 50 4 Image Chart
1992 1 7 12 5.7 169.4 985 50 4 Image Chart
1992 1 7 18 5.7 168.8 985 50 4 Image Chart
1992 1 8 00 5.8 168.3 985 50 4 Image Chart
1992 1 8 06 6.0 166.8 985 50 4 Image Chart
1992 1 8 12 6.0 165.4 985 50 4 Image Chart
1992 1 8 18 6.1 163.9 985 50 4 Image Chart
1992 1 9 00 6.5 162.3 980 55 4 Image Chart
1992 1 9 06 7.0 160.5 980 55 4 Image Chart
1992 1 9 12 7.1 159.3 985 50 4 Image Chart
1992 1 9 18 7.2 157.3 990 45 3 Image Chart
1992 1 10 00 7.3 155.8 990 45 3 Image Chart
1992 1 10 06 7.5 154.8 992 45 3 Image Chart
1992 1 10 12 7.8 153.9 996 40 3 Image Chart
1992 1 10 18 8.7 153.1 996 40 3 Image Chart
1992 1 11 00 9.4 152.4 996 40 3 Image Chart
1992 1 11 06 9.6 151.4 996 40 3 Image Chart
1992 1 11 12 9.8 150.4 998 35 3 Image Chart
1992 1 11 18 9.9 149.3 998 35 3 Image Chart
1992 1 12 00 10.2 148.2 996 35 3 Image Chart
1992 1 12 06 10.4 147.0 996 35 3 Image Chart
1992 1 12 12 10.7 146.0 996 35 3 Image Chart
1992 1 12 18 11.0 145.0 998 35 3 Image Chart
1992 1 13 00 11.5 144.1 1000 35 3 Image Chart
1992 1 13 06 11.9 143.2 1000 0 2 Image Chart
1992 1 13 12 12.3 142.5 1002 0 2 Image Chart
1992 1 13 18 13.1 141.6 1002 0 2 Image Chart
1992 1 14 00 14.3 140.5 1004 0 2 Image Chart
1992 1 14 06 15.5 140.5 1004 0 2 Image Chart
1992 1 14 12 17.3 141.0 1004 0 2 Image Chart
1992 1 14 18 18.8 141.9 1004 0 2 Image Chart
1992 1 15 00 21.8 144.8 1006 0 2 Image Chart
1992 1 15 06 23.7 148.4 1006 0 2 Image Chart
1992 1 15 12 25.5 153.6 1008 0 2 Image Chart
1992 1 15 18 28.0 159.0 1008 0 6 Image Chart
Japan Meteorological Agency Best Track Data | Correction Date : 1992-12-25
< Typhoon 199129 1992 Season Typhoon 199202 >

Help